createdAt,value
2018-11-26T00:01:57.265Z,15.32
2018-11-26T00:04:29.368Z,13.38
2018-11-26T00:07:01.541Z,14.75
2018-11-26T00:09:33.340Z,12.85
2018-11-26T00:12:05.701Z,13.75
2018-11-26T00:14:37.401Z,14.90
2018-11-26T00:17:09.740Z,14.98
2018-11-26T00:19:42.120Z,13.83
2018-11-26T00:22:14.100Z,27.95
2018-11-26T00:24:45.801Z,23.00
2018-11-26T00:27:17.580Z,16.45
2018-11-26T00:29:49.760Z,15.18
2018-11-26T00:32:21.961Z,14.80
2018-11-26T00:34:53.581Z,14.70
2018-11-26T00:37:26.081Z,12.43
2018-11-26T00:39:56.400Z,14.87
2018-11-26T00:42:29.310Z,14.10
2018-11-26T00:45:01.380Z,15.55
2018-11-26T00:47:33.781Z,13.80
2018-11-26T00:50:04.060Z,12.88
2018-11-26T00:52:36.200Z,13.30
2018-11-26T00:55:07.720Z,14.10
2018-11-26T00:57:40.121Z,12.95
2018-11-26T01:00:13.760Z,19.48
2018-11-26T01:02:46.220Z,14.63
2018-11-26T01:05:30.720Z,13.75
2018-11-26T01:08:03.340Z,14.40
2018-11-26T01:10:35.561Z,14.10
2018-11-26T01:13:07.260Z,14.53
2018-11-26T01:15:39.201Z,15.58
2018-11-26T01:18:11.664Z,13.00
2018-11-26T01:20:43.663Z,14.68
2018-11-26T01:23:16.400Z,14.23
2018-11-26T01:25:48.440Z,17.75
2018-11-26T01:28:19.922Z,12.47
2018-11-26T01:30:52.241Z,16.12
2018-11-26T01:33:24.101Z,13.78
2018-11-26T01:35:56.903Z,13.68
2018-11-26T01:38:28.520Z,14.35
2018-11-26T01:41:00.940Z,14.05
2018-11-26T01:43:33.420Z,14.23
2018-11-26T01:46:04.520Z,14.55
2018-11-26T01:48:37.804Z,14.58
2018-11-26T01:51:10.841Z,14.90
2018-11-26T01:53:42.862Z,15.55
2018-11-26T01:56:14.560Z,15.43
2018-11-26T01:58:46.502Z,16.32
2018-11-26T02:01:19.047Z,18.35
2018-11-26T02:03:50.406Z,15.38
2018-11-26T02:06:22.189Z,14.40
2018-11-26T02:08:54.587Z,13.83
2018-11-26T02:11:26.126Z,14.47
2018-11-26T02:13:57.906Z,15.43
2018-11-26T02:16:30.435Z,15.65
2018-11-26T02:19:02.894Z,14.00
2018-11-26T02:21:35.487Z,11.90
2018-11-26T02:24:08.048Z,13.72
2018-11-26T02:26:39.328Z,13.95
2018-11-26T02:29:12.146Z,13.43
2018-11-26T02:31:43.686Z,14.50
2018-11-26T02:34:16.186Z,12.70
2018-11-26T02:36:47.986Z,13.08
2018-11-26T02:39:20.506Z,14.85
2018-11-26T02:41:52.366Z,13.65
2018-11-26T02:44:24.406Z,17.82
2018-11-26T02:46:57.326Z,13.00
2018-11-26T02:49:28.667Z,13.62
2018-11-26T02:52:01.008Z,14.87
2018-11-26T02:54:33.287Z,14.53
2018-11-26T02:57:04.646Z,17.87
2018-11-26T02:59:36.426Z,17.07
2018-11-26T03:02:08.986Z,13.38
2018-11-26T03:04:41.466Z,15.55
2018-11-26T03:07:12.867Z,15.55
2018-11-26T03:09:45.346Z,16.55
2018-11-26T03:12:18.386Z,14.03
2018-11-26T03:14:50.387Z,16.07
2018-11-26T03:17:23.446Z,15.95
2018-11-26T03:19:55.907Z,16.77
2018-11-26T03:22:27.626Z,13.98
2018-11-26T03:24:59.247Z,14.43
2018-11-26T03:27:30.906Z,16.27
2018-11-26T03:30:02.643Z,14.60
2018-11-26T03:32:34.070Z,17.30
2018-11-26T03:35:06.287Z,17.42
2018-11-26T03:37:38.886Z,16.40
2018-11-26T03:40:12.726Z,14.15
2018-11-26T03:42:45.428Z,14.73
2018-11-26T03:45:18.746Z,16.12
2018-11-26T03:47:51.186Z,18.60
2018-11-26T03:50:22.946Z,15.88
2018-11-26T03:52:55.887Z,17.17
2018-11-26T03:55:28.006Z,14.65
2018-11-26T03:57:59.826Z,14.98
2018-11-26T04:00:32.012Z,14.75
2018-11-26T04:03:03.808Z,17.10
2018-11-26T04:05:36.006Z,16.15
2018-11-26T04:08:08.266Z,16.57
2018-11-26T04:10:40.047Z,16.45
2018-11-26T04:13:11.686Z,15.48
2018-11-26T04:15:44.007Z,13.90
2018-11-26T04:18:16.347Z,17.42
2018-11-26T04:20:47.826Z,15.63
2018-11-26T04:23:20.026Z,16.00
2018-11-26T04:25:51.466Z,17.30
2018-11-26T04:28:23.206Z,16.60
2018-11-26T04:30:54.587Z,16.40
2018-11-26T04:33:26.312Z,17.62
2018-11-26T04:35:57.766Z,20.48
2018-11-26T04:38:29.946Z,17.48
2018-11-26T04:41:01.587Z,17.23
2018-11-26T04:43:34.066Z,17.85
2018-11-26T04:46:05.626Z,16.35
2018-11-26T04:48:37.446Z,17.73
2018-11-26T04:51:08.326Z,18.30
2018-11-26T04:53:39.606Z,17.30
2018-11-26T04:56:11.666Z,17.10
2018-11-26T04:58:43.186Z,18.45
2018-11-26T05:01:15.191Z,18.85
2018-11-26T05:03:46.986Z,15.58
2018-11-26T05:06:19.286Z,18.00
2018-11-26T05:08:51.907Z,15.90
2018-11-26T05:11:23.566Z,16.82
2018-11-26T05:13:56.046Z,15.40
2018-11-26T05:16:27.186Z,17.62
2018-11-26T05:18:58.707Z,16.52
2018-11-26T05:21:30.907Z,16.27
2018-11-26T05:24:03.006Z,20.02
2018-11-26T05:26:34.711Z,15.75
2018-11-26T05:29:06.627Z,18.00
2018-11-26T05:31:38.406Z,12.90
2018-11-26T05:34:10.866Z,17.62
2018-11-26T05:36:42.386Z,15.55
2018-11-26T05:39:15.231Z,16.95
2018-11-26T05:41:47.486Z,15.45
2018-11-26T05:44:19.366Z,18.55
2018-11-26T05:46:50.926Z,14.90
2018-11-26T05:49:22.970Z,17.48
2018-11-26T05:51:55.249Z,22.77
2018-11-26T06:01:34.066Z,29.52
2018-11-26T06:04:06.349Z,14.28
2018-11-26T06:06:37.906Z,16.60
2018-11-26T06:09:12.946Z,16.25
2018-11-26T06:11:44.947Z,16.35
2018-11-26T06:14:16.926Z,16.45
2018-11-26T06:16:53.500Z,17.85
2018-11-26T06:19:19.826Z,14.33
2018-11-26T06:21:50.646Z,17.07
2018-11-26T06:24:22.246Z,21.15
2018-11-26T06:26:54.966Z,17.45
2018-11-26T06:29:27.087Z,18.30
2018-11-26T06:31:59.309Z,14.75
2018-11-26T06:34:31.507Z,16.57
2018-11-26T06:37:03.206Z,16.23
2018-11-26T06:39:34.507Z,16.32
2018-11-26T06:42:06.426Z,16.52
2018-11-26T06:44:38.746Z,13.90
2018-11-26T06:47:10.566Z,17.07
2018-11-26T06:49:43.646Z,27.17
2018-11-26T06:52:15.986Z,21.60
2018-11-26T06:54:47.786Z,17.23
2018-11-26T06:57:20.328Z,20.00
2018-11-26T06:59:52.348Z,15.78
2018-11-26T07:02:24.046Z,15.25
2018-11-26T07:04:56.686Z,16.25
2018-11-26T07:07:28.186Z,16.93
2018-11-26T07:10:00.055Z,17.32
2018-11-26T07:12:31.826Z,17.17
2018-11-26T07:15:03.727Z,16.30
2018-11-26T07:17:35.606Z,16.17
2018-11-26T07:20:09.473Z,20.08
2018-11-26T07:22:41.009Z,14.87
2018-11-26T07:25:20.788Z,14.38
2018-11-26T07:27:55.687Z,13.28
2018-11-26T07:30:28.486Z,15.72
2018-11-26T07:33:01.989Z,19.57
2018-11-26T07:35:34.631Z,21.05
2018-11-26T07:38:07.107Z,16.80
2018-11-26T07:40:38.546Z,20.20
2018-11-26T07:43:12.587Z,21.55
2018-11-26T07:45:44.947Z,19.05
2018-11-26T07:48:16.347Z,18.98
2018-11-26T07:50:49.426Z,19.90
2018-11-26T07:53:21.291Z,18.67
2018-11-26T07:55:52.787Z,20.50
2018-11-26T07:58:25.007Z,21.12
2018-11-26T08:00:56.846Z,20.82
2018-11-26T08:03:28.968Z,18.82
2018-11-26T08:06:02.370Z,28.15
2018-11-26T08:08:33.429Z,26.57
2018-11-26T08:11:06.028Z,19.62
2018-11-26T08:13:37.546Z,33.98
2018-11-26T08:16:10.526Z,22.40
2018-11-26T08:18:41.933Z,25.85
2018-11-26T08:21:12.970Z,19.50
2018-11-26T08:23:45.214Z,19.05
2018-11-26T08:26:18.496Z,20.23
2018-11-26T08:28:50.732Z,22.02
2018-11-26T08:31:22.652Z,20.75
2018-11-26T08:33:54.615Z,20.27
2018-11-26T08:36:33.552Z,23.85
2018-11-26T08:39:11.933Z,20.70
2018-11-26T08:41:48.010Z,21.02
2018-11-26T08:44:28.309Z,23.73
2018-11-26T08:47:04.149Z,35.35
2018-11-26T08:49:36.809Z,19.95
2018-11-26T08:52:09.271Z,18.00
2018-11-26T08:54:40.546Z,22.05
2018-11-26T08:57:12.310Z,19.45
2018-11-26T08:59:43.633Z,24.12
2018-11-26T09:02:18.616Z,21.52
2018-11-26T09:04:54.031Z,20.23
2018-11-26T09:07:25.611Z,25.32
2018-11-26T09:09:57.911Z,21.85
2018-11-26T09:12:30.371Z,25.32
2018-11-26T09:15:02.592Z,20.90
2018-11-26T09:17:34.592Z,24.05
2018-11-26T09:20:06.231Z,22.82
2018-11-26T09:22:37.613Z,22.20
2018-11-26T09:25:13.354Z,22.10
2018-11-26T09:27:44.832Z,26.52
2018-11-26T09:30:17.511Z,27.17
2018-11-26T09:32:48.951Z,23.30
2018-11-26T09:35:20.816Z,23.75
2018-11-26T09:37:52.051Z,21.40
2018-11-26T09:40:24.132Z,24.02
2018-11-26T09:42:56.531Z,23.15
2018-11-26T09:45:27.732Z,19.82
2018-11-26T09:47:59.651Z,22.95
2018-11-26T09:50:31.591Z,23.02
2018-11-26T09:53:03.791Z,21.68
2018-11-26T09:55:35.136Z,20.95
2018-11-26T09:58:07.152Z,25.52
2018-11-26T10:00:40.391Z,22.50
2018-11-26T10:03:12.033Z,21.80
2018-11-26T10:05:44.174Z,21.55
2018-11-26T10:08:16.153Z,22.90
2018-11-26T10:10:48.480Z,20.70
2018-11-26T10:13:20.332Z,23.75
2018-11-26T10:15:52.637Z,27.67
2018-11-26T10:18:25.111Z,24.05
2018-11-26T10:20:57.191Z,21.15
2018-11-26T10:23:28.971Z,21.30
2018-11-26T10:26:00.992Z,21.82
2018-11-26T10:28:33.451Z,24.55
2018-11-26T10:31:05.972Z,25.82
2018-11-26T10:33:37.427Z,24.92
2018-11-26T10:36:09.587Z,21.27
2018-11-26T10:38:41.757Z,25.30
2018-11-26T10:41:14.278Z,24.60
2018-11-26T10:43:46.777Z,22.42
2018-11-26T10:46:18.757Z,19.90
2018-11-26T10:48:49.917Z,20.82
2018-11-26T10:51:21.857Z,20.88
2018-11-26T10:53:53.763Z,19.77
2018-11-26T10:56:26.202Z,21.93
2018-11-26T10:58:58.221Z,36.00
2018-11-26T11:01:34.844Z,19.57
2018-11-26T11:04:07.109Z,34.65
2018-11-26T11:06:40.044Z,21.07
2018-11-26T11:09:11.999Z,30.32
2018-11-26T11:11:44.466Z,23.18
2018-11-26T11:14:16.079Z,25.25
2018-11-26T11:16:48.138Z,20.90
2018-11-26T11:19:18.999Z,24.18
2018-11-26T11:21:52.148Z,20.60
2018-11-26T11:24:23.789Z,22.77
2018-11-26T11:26:56.167Z,21.40
2018-11-26T11:29:28.307Z,25.72
2018-11-26T11:32:00.287Z,28.50
2018-11-26T11:34:32.031Z,24.47
2018-11-26T11:37:03.847Z,27.07
2018-11-26T11:39:36.188Z,24.47
2018-11-26T11:42:08.670Z,25.62
2018-11-26T11:44:40.827Z,21.17
2018-11-26T11:47:13.648Z,26.97
2018-11-26T11:49:45.187Z,18.85
2018-11-26T11:52:17.467Z,20.25
2018-11-26T11:54:49.347Z,21.82
2018-11-26T11:57:22.728Z,21.62
2018-11-26T11:59:54.647Z,19.15
2018-11-26T12:02:26.190Z,18.12
2018-11-26T12:04:58.408Z,23.20
2018-11-26T12:07:30.126Z,22.05
2018-11-26T12:10:01.706Z,27.13
2018-11-26T12:12:33.147Z,19.05
2018-11-26T12:15:05.486Z,20.17
2018-11-26T12:17:37.107Z,26.55
2018-11-26T12:20:12.067Z,25.05
2018-11-26T12:22:44.366Z,21.62
2018-11-26T12:25:17.837Z,20.35
2018-11-26T12:27:49.699Z,22.45
2018-11-26T12:30:23.557Z,21.45
2018-11-26T12:32:55.991Z,28.20
2018-11-26T12:35:28.911Z,29.50
2018-11-26T12:38:00.792Z,26.62
2018-11-26T12:40:33.131Z,24.40
2018-11-26T12:43:06.131Z,19.00
2018-11-26T12:45:37.331Z,22.42
2018-11-26T12:48:10.392Z,24.12
2018-11-26T12:50:41.891Z,24.70
2018-11-26T12:53:14.410Z,21.05
2018-11-26T12:55:45.971Z,24.43
2018-11-26T12:58:17.631Z,21.93
2018-11-26T13:00:49.812Z,24.00
2018-11-26T13:03:21.931Z,25.80
2018-11-26T13:05:53.471Z,24.45
2018-11-26T13:08:24.600Z,22.52
2018-11-26T13:10:55.799Z,23.65
2018-11-26T13:13:27.918Z,23.38
2018-11-26T13:16:01.471Z,20.97
2018-11-26T13:18:32.216Z,23.18
2018-11-26T13:21:03.273Z,23.47
2018-11-26T13:23:34.962Z,22.60
2018-11-26T13:26:05.717Z,25.25
2018-11-26T13:28:38.785Z,20.15
2018-11-26T13:31:09.689Z,20.77
2018-11-26T13:33:41.559Z,23.38
2018-11-26T13:36:12.472Z,25.20
2018-11-26T13:38:44.909Z,25.48
2018-11-26T13:41:16.056Z,33.23
2018-11-26T13:43:47.764Z,23.75
2018-11-26T13:46:19.752Z,22.27
2018-11-26T13:48:51.899Z,24.95
2018-11-26T13:51:23.226Z,28.70
2018-11-26T13:53:54.733Z,21.10
2018-11-26T13:56:27.775Z,25.37
2018-11-26T13:58:59.376Z,27.27
2018-11-26T14:01:30.387Z,22.85
2018-11-26T14:04:01.194Z,20.27
2018-11-26T14:06:31.936Z,22.75
2018-11-26T14:09:04.061Z,21.10
2018-11-26T14:11:37.150Z,21.97
2018-11-26T14:14:08.989Z,21.20
2018-11-26T14:16:41.166Z,23.40
2018-11-26T14:19:12.965Z,18.95
2018-11-26T14:21:45.921Z,19.65
2018-11-26T14:24:17.741Z,19.65
2018-11-26T14:26:50.589Z,25.50
2018-11-26T14:29:22.129Z,22.85
2018-11-26T14:31:53.944Z,21.70
2018-11-26T14:34:25.387Z,18.87
2018-11-26T14:36:57.566Z,23.47
2018-11-26T14:39:28.806Z,24.98
2018-11-26T14:42:00.873Z,20.08
2018-11-26T14:44:31.838Z,21.68
2018-11-26T14:47:04.538Z,20.62
2018-11-26T14:49:35.760Z,17.45
2018-11-26T14:52:07.738Z,21.68
2018-11-26T14:54:39.339Z,25.95
2018-11-26T14:57:12.059Z,21.10
2018-11-26T14:59:43.698Z,25.50
2018-11-26T15:02:15.506Z,21.35
2018-11-26T15:04:46.278Z,21.02
2018-11-26T15:07:17.977Z,23.40
2018-11-26T15:09:49.857Z,19.87
2018-11-26T15:12:21.618Z,19.62
2018-11-26T15:14:53.917Z,20.10
2018-11-26T15:17:25.609Z,18.45
2018-11-26T15:19:57.271Z,23.27
2018-11-26T15:22:30.161Z,18.62
2018-11-26T15:25:01.748Z,19.45
2018-11-26T15:27:35.167Z,22.30
2018-11-26T15:30:09.708Z,28.05
2018-11-26T15:32:41.549Z,34.53
2018-11-26T15:35:16.388Z,21.60
2018-11-26T15:37:47.988Z,25.82
2018-11-26T15:40:20.068Z,19.60
2018-11-26T15:42:52.229Z,18.48
2018-11-26T15:45:25.730Z,18.70
2018-11-26T15:47:58.992Z,20.57
2018-11-26T15:50:31.052Z,25.25
2018-11-26T15:53:03.752Z,28.00
2018-11-26T15:55:35.997Z,26.10
2018-11-26T15:58:07.837Z,20.82
2018-11-26T16:00:39.917Z,21.42
2018-11-26T16:03:12.137Z,22.80
2018-11-26T16:05:44.537Z,19.75
2018-11-26T16:08:17.899Z,25.30
2018-11-26T16:10:49.437Z,21.35
2018-11-26T16:13:20.396Z,18.87
2018-11-26T16:15:52.985Z,27.52
2018-11-26T16:18:25.298Z,18.73
2018-11-26T16:20:57.618Z,19.75
2018-11-26T16:23:29.039Z,23.38
2018-11-26T16:26:02.190Z,17.15
2018-11-26T16:28:34.619Z,24.10
2018-11-26T16:31:06.099Z,18.92
2018-11-26T16:33:38.159Z,18.05
2018-11-26T16:36:10.760Z,17.98
2018-11-26T16:38:41.979Z,19.48
2018-11-26T16:41:13.998Z,19.95
2018-11-26T16:43:45.679Z,19.77
2018-11-26T16:46:17.520Z,20.12
2018-11-26T16:48:48.787Z,17.80
2018-11-26T16:51:20.159Z,16.10
2018-11-26T16:53:51.739Z,18.77
2018-11-26T16:56:23.839Z,17.42
2018-11-26T16:58:55.599Z,19.57
2018-11-26T17:01:27.859Z,17.55
2018-11-26T17:03:59.409Z,28.05
2018-11-26T17:06:31.520Z,19.12
2018-11-26T17:09:03.859Z,24.32
2018-11-26T17:11:35.739Z,22.48
2018-11-26T17:14:07.542Z,24.57
2018-11-26T17:16:41.260Z,20.40
2018-11-26T17:19:12.540Z,19.95
2018-11-26T17:21:44.179Z,19.45
2018-11-26T17:24:16.679Z,20.43
2018-11-26T17:26:48.979Z,21.85
2018-11-26T17:29:20.979Z,18.57
2018-11-26T17:31:53.401Z,23.38
2018-11-26T17:34:25.048Z,20.50
2018-11-26T17:36:57.379Z,16.65
2018-11-26T17:39:28.899Z,19.67
2018-11-26T17:42:00.459Z,19.57
2018-11-26T17:44:31.779Z,15.80
2018-11-26T17:47:03.459Z,19.75
2018-11-26T17:49:35.560Z,21.15
2018-11-26T17:52:07.159Z,15.80
2018-11-26T17:54:38.859Z,19.87
2018-11-26T17:57:11.982Z,16.37
2018-11-26T17:59:43.663Z,17.25
2018-11-26T18:02:16.480Z,18.85
2018-11-26T18:04:49.699Z,16.80
2018-11-26T18:07:22.804Z,19.07
2018-11-26T18:09:55.399Z,21.62
2018-11-26T18:12:27.039Z,17.70
2018-11-26T18:15:00.019Z,22.95
2018-11-26T18:17:31.879Z,17.37
2018-11-26T18:20:05.020Z,17.70
2018-11-26T18:22:36.479Z,20.02
2018-11-26T18:25:09.278Z,18.25
2018-11-26T18:27:41.788Z,16.50
2018-11-26T18:30:16.580Z,15.48
2018-11-26T18:32:49.239Z,15.45
2018-11-26T18:35:22.459Z,17.20
2018-11-26T18:37:54.424Z,18.92
2018-11-26T18:40:26.401Z,16.52
2018-11-26T18:42:57.699Z,18.17
2018-11-26T18:45:30.240Z,16.82
2018-11-26T18:48:02.239Z,20.48
2018-11-26T18:50:34.599Z,19.17
2018-11-26T18:53:06.719Z,19.77
2018-11-26T18:55:39.099Z,23.77
2018-11-26T18:58:10.879Z,18.77
2018-11-26T19:00:46.542Z,23.92
2018-11-26T19:03:20.462Z,24.02
2018-11-26T19:05:53.199Z,22.75
2018-11-26T19:08:25.479Z,23.20
2018-11-26T19:11:00.059Z,22.70
2018-11-26T19:13:39.640Z,21.30
2018-11-26T19:16:15.319Z,20.55
2018-11-26T19:18:47.270Z,21.17
2018-11-26T19:21:18.880Z,21.80
2018-11-26T19:23:51.160Z,20.27
2018-11-26T19:26:25.838Z,23.85
2018-11-26T19:28:57.677Z,25.02
2018-11-26T19:31:29.736Z,21.93
2018-11-26T19:34:01.977Z,23.12
2018-11-26T19:36:34.738Z,21.73
2018-11-26T19:39:07.556Z,24.72
2018-11-26T19:41:40.038Z,23.32
2018-11-26T19:44:12.505Z,20.92
2018-11-26T19:46:45.985Z,24.55
2018-11-26T19:49:17.875Z,22.77
2018-11-26T19:51:49.477Z,28.00
2018-11-26T19:54:21.616Z,28.55
2018-11-26T19:56:54.135Z,25.40
2018-11-26T19:59:26.317Z,26.15
2018-11-26T20:01:59.836Z,23.75
2018-11-26T20:04:34.215Z,25.37
2018-11-26T20:07:07.018Z,26.87
2018-11-26T20:09:38.915Z,29.40
2018-11-26T20:12:09.836Z,23.05
2018-11-26T20:14:42.162Z,24.57
2018-11-26T20:17:14.196Z,31.20
2018-11-26T20:19:46.295Z,24.87
2018-11-26T20:22:18.296Z,16.45
2018-11-26T20:24:51.035Z,14.75
2018-11-26T20:27:23.775Z,14.70
2018-11-26T20:29:55.244Z,14.95
2018-11-26T20:32:30.191Z,12.70
2018-11-26T20:34:58.800Z,16.32
2018-11-26T20:37:31.255Z,15.15
2018-11-26T20:40:02.556Z,14.45
2018-11-26T20:42:37.056Z,14.90
2018-11-26T20:45:13.116Z,15.60
2018-11-26T20:47:44.881Z,12.37
2018-11-26T20:50:18.376Z,16.10
2018-11-26T20:52:50.956Z,13.00
2018-11-26T20:55:24.635Z,14.35
2018-11-26T20:57:58.396Z,11.20
2018-11-26T21:00:31.475Z,10.88
2018-11-26T21:03:09.322Z,14.18
2018-11-26T21:05:42.355Z,13.10
2018-11-26T21:08:14.436Z,13.40
2018-11-26T21:10:46.395Z,7.75
2018-11-26T21:13:19.396Z,10.68
2018-11-26T21:15:51.197Z,11.40
2018-11-26T21:18:22.495Z,10.20
2018-11-26T21:20:55.059Z,8.28
2018-11-26T21:23:30.379Z,9.68
2018-11-26T21:26:04.000Z,8.60
2018-11-26T21:28:37.656Z,8.13
2018-11-26T21:31:09.915Z,8.93
2018-11-26T21:33:43.095Z,8.18
2018-11-26T21:36:15.895Z,9.15
2018-11-26T21:38:47.837Z,6.58
2018-11-26T21:41:20.157Z,6.72
2018-11-26T21:43:53.758Z,7.40
2018-11-26T21:46:25.977Z,8.85
2018-11-26T21:48:58.915Z,8.00
2018-11-26T21:51:30.955Z,7.20
2018-11-26T21:54:03.957Z,6.70
2018-11-26T21:56:35.737Z,7.33
2018-11-26T21:59:08.197Z,7.25
2018-11-26T22:01:41.057Z,8.25
2018-11-26T22:04:13.476Z,6.95
2018-11-26T22:06:44.957Z,7.47
2018-11-26T22:09:17.620Z,6.72
2018-11-26T22:11:49.443Z,7.05
2018-11-26T22:14:22.117Z,6.50
2018-11-26T22:16:54.836Z,9.25
2018-11-26T22:19:26.563Z,10.82
2018-11-26T22:21:57.978Z,10.20
2018-11-26T22:24:31.195Z,9.33
2018-11-26T22:27:03.536Z,6.65
2018-11-26T22:29:36.076Z,8.33
2018-11-26T22:32:07.976Z,9.38
2018-11-26T22:34:41.556Z,8.13
2018-11-26T22:37:14.256Z,9.30
2018-11-26T22:39:47.254Z,7.17
2018-11-26T22:42:20.135Z,8.00
2018-11-26T22:44:52.335Z,7.10
2018-11-26T22:47:25.596Z,8.35
2018-11-26T22:49:57.914Z,7.15
2018-11-26T22:52:29.598Z,7.95
2018-11-26T22:55:01.416Z,6.97
2018-11-26T22:57:32.595Z,8.88
2018-11-26T23:00:05.080Z,7.20
2018-11-26T23:02:37.155Z,7.05
2018-11-26T23:05:10.055Z,9.60
2018-11-26T23:07:42.036Z,7.67
2018-11-26T23:10:12.356Z,5.20
2018-11-26T23:12:44.115Z,6.97
2018-11-26T23:15:18.114Z,6.17
2018-11-26T23:17:50.819Z,8.13
2018-11-26T23:20:22.376Z,6.87
2018-11-26T23:22:54.815Z,5.37
2018-11-26T23:25:26.996Z,9.75
2018-11-26T23:27:58.935Z,6.67
2018-11-26T23:30:31.755Z,6.08
2018-11-26T23:33:05.894Z,7.00
2018-11-26T23:35:37.655Z,6.28
2018-11-26T23:38:09.455Z,6.37
2018-11-26T23:40:41.015Z,7.87
2018-11-26T23:43:13.215Z,8.00
2018-11-26T23:45:46.155Z,6.35
2018-11-26T23:48:17.516Z,7.60
2018-11-26T23:50:49.575Z,6.85
2018-11-26T23:53:22.015Z,7.20
2018-11-26T23:55:54.175Z,6.60
2018-11-26T23:58:26.135Z,6.28
